Time;durP1;ratioP1;P1;durP2;ratioP2;P2;SDS_P1;SDS_P2;PMS_P1;PMS_P2;Temp;Humidity;BMP_temperature;BMP_pressure;BME280_temperature;BME280_humidity;BME280_pressure;Samples;Min_cycle;Max_cycle;Signal;HPM_P1;HPM_P2
2023/05/06 00:01:53;;;;;;;;;;;;;;;29.34;26.59;100702.69;5091964;28;1083;-20
2023/05/06 00:04:19;;;;;;;;;;;;;;;29.52;26.74;100697.78;5078714;28;1042;-20
2023/05/06 00:06:44;;;;;;;;;;;;;;;29.78;26.16;100701.69;5086070;28;1077;-20
2023/05/06 00:09:10;;;;;;;;;;;;;;;29.54;26.22;100696.56;5087500;28;1023;-20
2023/05/06 00:11:35;;;;;;;;;;;;;;;29.11;26.75;100688.59;5083982;28;1074;-20
2023/05/06 00:14:01;;;;;;;;;;;;;;;29.35;26.60;100684.56;5084663;28;1020;-20
2023/05/06 00:16:27;;;;;;;;;;;;;;;29.98;26.04;100698.22;5092165;28;1210;-20
2023/05/06 00:18:52;;;;;;;;;;;;;;;29.15;26.48;100695.28;5078833;28;1902;-20
2023/05/06 00:21:18;;;;;;;;;;;;;;;29.19;26.57;100688.44;5091573;28;1126;-21
2023/05/06 00:23:43;;;;;;;;;;;;;;;29.48;26.57;100688.41;5086515;28;1117;-20
2023/05/06 00:26:09;;;;;;;;;;;;;;;29.63;26.43;100682.88;5096760;28;1127;-20
2023/05/06 00:28:35;;;;;;;;;;;;;;;29.97;25.87;100681.09;5086819;28;1076;-20
2023/05/06 00:31:00;;;;;;;;;;;;;;;29.39;26.53;100687.72;5080404;28;1126;-20
2023/05/06 00:33:26;;;;;;;;;;;;;;;29.16;26.75;100684.22;5099061;28;1101;-21
2023/05/06 00:35:51;;;;;;;;;;;;;;;29.67;26.19;100684.97;5097017;28;1054;-20
2023/05/06 00:38:18;;;;;;;;;;;;;;;29.58;25.92;100680.72;5084828;28;873;-20
2023/05/06 00:40:44;;;;;;;;;;;;;;;29.27;26.72;100674.72;5079705;28;1902;-20
2023/05/06 00:43:09;;;;;;;;;;;;;;;29.30;26.71;100679.75;5098430;28;1150;-20
2023/05/06 00:45:35;;;;;;;;;;;;;;;29.54;26.45;100679.44;5084684;28;1018;-20
2023/05/06 00:48:01;;;;;;;;;;;;;;;29.98;25.91;100673.81;5090231;28;1166;-20
2023/05/06 00:50:27;;;;;;;;;;;;;;;29.40;26.43;100679.38;5061798;28;970;-20
2023/05/06 00:52:53;;;;;;;;;;;;;;;28.89;27.01;100685.91;5071747;28;1107;-20
2023/05/06 00:55:20;;;;;;;;;;;;;;;29.76;26.11;100679.38;5077013;28;1229;-21
2023/05/06 00:57:48;;;;;;;;;;;;;;;29.43;26.23;100681.69;5077686;28;1107;-19
2023/05/06 01:00:14;;;;;;;;;;;;;;;29.15;26.71;100685.28;5077953;28;1910;-20
2023/05/06 01:02:40;;;;;;;;;;;;;;;29.38;26.70;100673.31;5084971;28;869;-20
2023/05/06 01:05:06;;;;;;;;;;;;;;;29.66;26.45;100664.28;5091349;28;1078;-20
2023/05/06 01:07:36;;;;;;;;;;;;;;;29.88;25.95;100666.88;5084646;28;1261;-20
2023/05/06 01:10:05;;;;;;;;;;;;;;;29.29;26.61;100661.81;5094014;28;1062;-20
2023/05/06 01:12:32;;;;;;;;;;;;;;;29.31;26.72;100656.22;5087911;28;1148;-20
2023/05/06 01:14:58;;;;;;;;;;;;;;;29.87;26.14;100669.78;5076038;28;894;-20
2023/05/06 01:17:25;;;;;;;;;;;;;;;29.05;26.80;100663.13;5077592;28;1235;-20
2023/05/06 01:19:52;;;;;;;;;;;;;;;28.99;27.06;100666.63;5094848;28;1992;-20
2023/05/06 01:22:17;;;;;;;;;;;;;;;29.56;26.36;100661.13;5068906;28;1137;-19
2023/05/06 01:24:43;;;;;;;;;;;;;;;29.67;26.17;100659.72;5076621;28;1054;-20
2023/05/06 01:27:09;;;;;;;;;;;;;;;30.04;25.92;100659.41;5077318;28;977;-19
2023/05/06 01:29:35;;;;;;;;;;;;;;;29.15;26.50;100655.50;5091278;28;1115;-20
2023/05/06 01:32:07;;;;;;;;;;;;;;;29.05;26.76;100655.00;5062862;28;1099;-19
2023/05/06 01:34:37;;;;;;;;;;;;;;;29.81;26.19;100652.47;5066258;28;1142;-21
2023/05/06 01:37:13;;;;;;;;;;;;;;;29.14;26.83;100642.16;5068675;28;1102;-20
2023/05/06 01:39:39;;;;;;;;;;;;;;;29.13;26.80;100654.03;5065469;28;1978;-20
2023/05/06 01:42:04;;;;;;;;;;;;;;;29.54;26.56;100655.91;5097171;28;1153;-20
2023/05/06 01:44:31;;;;;;;;;;;;;;;29.69;26.49;100654.94;5073260;28;1082;-20
2023/05/06 01:46:57;;;;;;;;;;;;;;;29.66;26.27;100653.44;5079544;28;1074;-20
2023/05/06 01:49:22;;;;;;;;;;;;;;;29.20;27.20;100644.03;5080773;28;1216;-20
2023/05/06 01:51:49;;;;;;;;;;;;;;;29.37;26.95;100649.97;5071695;28;1137;-20
2023/05/06 01:54:15;;;;;;;;;;;;;;;30.00;26.26;100650.00;5059539;28;1201;-20
2023/05/06 01:56:41;;;;;;;;;;;;;;;29.05;27.14;100639.59;5090340;28;963;-20
2023/05/06 01:59:06;;;;;;;;;;;;;;;29.03;27.27;100646.25;5058923;28;1987;-19
2023/05/06 02:01:32;;;;;;;;;;;;;;;29.57;26.64;100652.78;5079546;28;1171;-20
2023/05/06 02:03:58;;;;;;;;;;;;;;;29.85;26.36;100653.72;5077099;28;1185;-20
2023/05/06 02:06:23;;;;;;;;;;;;;;;29.21;26.46;100645.75;5082904;28;1103;-20
2023/05/06 02:08:49;;;;;;;;;;;;;;;29.29;26.98;100647.44;5078853;28;1175;-21
2023/05/06 02:11:18;;;;;;;;;;;;;;;29.74;26.56;100640.78;5077990;28;1304;-19
2023/05/06 02:13:46;;;;;;;;;;;;;;;29.41;26.87;100640.41;5062909;28;1185;-20
2023/05/06 02:16:11;;;;;;;;;;;;;;;29.11;27.26;100643.41;5064464;28;1136;-19
2023/05/06 02:18:37;;;;;;;;;;;;;;;29.42;27.23;100642.09;5084132;28;1980;-20
2023/05/06 02:21:03;;;;;;;;;;;;;;;29.70;26.62;100645.75;5064171;28;1416;-19
2023/05/06 02:23:29;;;;;;;;;;;;;;;29.41;26.98;100643.09;5058410;28;1151;-20
2023/05/06 02:25:56;;;;;;;;;;;;;;;29.25;27.31;100646.16;5080808;28;1139;-20
2023/05/06 02:28:22;;;;;;;;;;;;;;;29.16;27.30;100638.19;5076523;28;1083;-20
2023/05/06 02:30:48;;;;;;;;;;;;;;;29.13;27.54;100643.19;5090092;28;1058;-20
2023/05/06 02:33:13;;;;;;;;;;;;;;;28.88;27.87;100639.03;5065037;28;1121;-20
2023/05/06 02:35:39;;;;;;;;;;;;;;;28.68;28.38;100641.59;5096587;28;1110;-19
2023/05/06 02:38:05;;;;;;;;;;;;;;;29.08;27.79;100635.63;5096210;28;1041;-20
2023/05/06 02:40:32;;;;;;;;;;;;;;;29.36;27.40;100633.94;5082767;28;1969;-20
2023/05/06 02:42:58;;;;;;;;;;;;;;;29.85;26.62;100639.31;5070744;28;1249;-19
2023/05/06 02:45:23;;;;;;;;;;;;;;;29.13;27.40;100635.88;5076640;28;1178;-20
2023/05/06 02:47:49;;;;;;;;;;;;;;;28.92;27.65;100642.19;5070594;28;1133;-19
2023/05/06 02:50:15;;;;;;;;;;;;;;;28.98;27.69;100633.28;5081497;28;1062;-20
2023/05/06 02:52:41;;;;;;;;;;;;;;;29.15;27.51;100630.25;5065542;28;1198;-20
2023/05/06 02:55:07;;;;;;;;;;;;;;;28.78;28.05;100633.97;5096033;28;1138;-20
2023/05/06 02:57:33;;;;;;;;;;;;;;;29.20;27.45;100634.06;5088827;28;1107;-20
2023/05/06 02:59:58;;;;;;;;;;;;;;;28.78;28.10;100636.66;5075526;28;1934;-20
2023/05/06 03:02:24;;;;;;;;;;;;;;;27.93;29.41;100632.78;5095965;28;1137;-20
2023/05/06 03:04:50;;;;;;;;;;;;;;;28.66;28.44;100624.72;5082623;28;1045;-20
2023/05/06 03:07:16;;;;;;;;;;;;;;;29.04;27.85;100624.41;5077895;28;1205;-19
2023/05/06 03:09:42;;;;;;;;;;;;;;;29.48;27.22;100617.94;5063996;28;1206;-19
2023/05/06 03:12:10;;;;;;;;;;;;;;;29.70;26.49;100616.78;5065770;28;1331;-19
2023/05/06 03:14:36;;;;;;;;;;;;;;;29.25;27.28;100619.06;5063160;28;1270;-19
2023/05/06 03:17:03;;;;;;;;;;;;;;;29.31;27.38;100616.38;5058074;28;1204;-21
2023/05/06 03:19:29;;;;;;;;;;;;;;;29.03;27.64;100611.06;5076968;28;1897;-20
2023/05/06 03:21:55;;;;;;;;;;;;;;;28.96;27.92;100613.69;5073981;28;1207;-20
2023/05/06 03:24:21;;;;;;;;;;;;;;;28.67;27.72;100619.13;5075130;28;1162;-20
2023/05/06 03:26:47;;;;;;;;;;;;;;;29.21;27.33;100619.47;5062853;28;1220;-20
2023/05/06 03:29:12;;;;;;;;;;;;;;;28.60;28.17;100620.94;5075264;28;1252;-20
2023/05/06 03:31:39;;;;;;;;;;;;;;;28.04;28.94;100625.19;5068672;28;1206;-20
2023/05/06 03:34:05;;;;;;;;;;;;;;;28.68;28.35;100631.59;5068553;28;1157;-20
2023/05/06 03:36:32;;;;;;;;;;;;;;;28.34;28.31;100636.72;5081605;28;1213;-20
2023/05/06 03:38:58;;;;;;;;;;;;;;;28.27;28.71;100637.69;5076759;28;1902;-20
2023/05/06 03:41:23;;;;;;;;;;;;;;;27.55;28.40;100652.69;5067928;28;1638;-22
2023/05/06 03:43:49;;;;;;;;;;;;;;;27.08;28.24;100660.97;5067836;28;1568;-21
2023/05/06 03:46:17;;;;;;;;;;;;;;;27.19;27.56;100661.56;5078162;28;1219;-21
2023/05/06 03:48:44;;;;;;;;;;;;;;;27.37;26.11;100678.25;5063659;28;1384;-21
2023/05/06 03:51:12;;;;;;;;;;;;;;;27.66;26.17;100680.25;5072829;28;1273;-21
2023/05/06 03:53:38;;;;;;;;;;;;;;;27.28;26.78;100687.44;5060626;28;1183;-21
2023/05/06 03:56:04;;;;;;;;;;;;;;;26.59;26.86;100686.56;5078491;28;1328;-21
2023/05/06 03:58:31;;;;;;;;;;;;;;;25.65;27.79;100687.25;5068141;28;1973;-21
2023/05/06 04:00:59;;;;;;;;;;;;;;;25.49;28.51;100689.97;5059842;28;1204;-20
2023/05/06 04:03:26;;;;;;;;;;;;;;;25.28;28.21;100694.91;5071748;28;1317;-21
2023/05/06 04:05:52;;;;;;;;;;;;;;;24.75;29.24;100697.09;5062552;28;1150;-22
2023/05/06 04:08:22;;;;;;;;;;;;;;;24.52;29.63;100703.16;5068832;28;1334;-21
2023/05/06 04:10:47;;;;;;;;;;;;;;;24.40;29.74;100702.63;5060817;28;1154;-20
2023/05/06 04:13:24;;;;;;;;;;;;;;;24.42;30.00;100701.44;5060917;28;1151;-20
2023/05/06 04:15:51;;;;;;;;;;;;;;;24.27;30.01;100701.28;5070190;28;1296;-20
2023/05/06 04:18:21;;;;;;;;;;;;;;;24.19;30.03;100704.78;5060793;28;1230;-20
2023/05/06 04:20:57;;;;;;;;;;;;;;;24.23;30.09;100707.97;5060988;28;1565;-21
2023/05/06 04:23:23;;;;;;;;;;;;;;;24.27;30.29;100709.34;5065845;28;1230;-21
2023/05/06 04:25:49;;;;;;;;;;;;;;;24.33;30.37;100707.81;5086495;28;1110;-21
2023/05/06 04:28:16;;;;;;;;;;;;;;;24.42;30.33;100714.06;5073861;28;1261;-21
2023/05/06 04:30:44;;;;;;;;;;;;;;;24.26;30.47;100717.53;5071977;28;1315;-21
2023/05/06 04:33:11;;;;;;;;;;;;;;;24.39;30.05;100712.53;5061319;28;1141;-20
2023/05/06 04:35:37;;;;;;;;;;;;;;;24.30;30.72;100709.00;5080821;28;1138;-23
2023/05/06 04:38:02;;;;;;;;;;;;;;;24.32;30.73;100709.66;5061157;28;1221;-21
2023/05/06 04:40:29;;;;;;;;;;;;;;;23.76;31.28;100711.97;5064985;28;1906;-22
2023/05/06 04:42:56;;;;;;;;;;;;;;;23.83;31.47;100705.81;5079725;28;1160;-21
2023/05/06 04:45:24;;;;;;;;;;;;;;;23.91;31.17;100710.38;5079941;28;1332;-21
2023/05/06 04:47:51;;;;;;;;;;;;;;;23.91;31.32;100715.75;5073865;28;1197;-21
2023/05/06 04:50:18;;;;;;;;;;;;;;;23.97;31.13;100715.09;5073316;28;1411;-21
2023/05/06 04:52:44;;;;;;;;;;;;;;;23.64;31.84;100712.25;5091112;28;1284;-21
2023/05/06 04:55:11;;;;;;;;;;;;;;;24.05;31.64;100716.13;5059829;28;1214;-21
2023/05/06 04:57:39;;;;;;;;;;;;;;;24.82;30.63;100717.78;5070539;28;981;-20
2023/05/06 05:00:05;;;;;;;;;;;;;;;25.09;30.21;100706.03;5075502;28;1976;-20
2023/05/06 05:02:31;;;;;;;;;;;;;;;25.30;30.01;100710.88;5080221;28;1341;-21
2023/05/06 05:04:57;;;;;;;;;;;;;;;25.28;30.19;100719.13;5075150;28;1152;-20
2023/05/06 05:07:23;;;;;;;;;;;;;;;25.34;30.25;100706.00;5072268;28;1482;-20
2023/05/06 05:09:48;;;;;;;;;;;;;;;25.41;30.16;100705.13;5070460;28;1454;-20
2023/05/06 05:12:15;;;;;;;;;;;;;;;25.59;30.19;100712.13;5058744;28;1498;-20
2023/05/06 05:14:46;;;;;;;;;;;;;;;25.59;30.12;100704.03;5061786;28;1477;-20
2023/05/06 05:17:12;;;;;;;;;;;;;;;25.60;30.35;100705.75;5060001;28;1435;-20
2023/05/06 05:19:38;;;;;;;;;;;;;;;25.66;30.40;100704.22;5058937;28;1906;-21
2023/05/06 05:22:04;;;;;;;;;;;;;;;25.60;30.78;100713.81;5050364;28;1439;-20
2023/05/06 05:24:31;;;;;;;;;;;;;;;25.75;30.60;100716.66;5071928;28;1509;-20
2023/05/06 05:26:57;;;;;;;;;;;;;;;25.65;30.80;100722.25;5070866;28;1192;-20
2023/05/06 05:29:23;;;;;;;;;;;;;;;25.65;30.85;100730.34;5048460;28;1327;-20
2023/05/06 05:31:49;;;;;;;;;;;;;;;25.63;31.08;100736.91;5067556;28;1491;-21
2023/05/06 05:34:15;;;;;;;;;;;;;;;25.59;31.34;100728.28;5065260;28;1423;-21
2023/05/06 05:36:41;;;;;;;;;;;;;;;25.72;30.80;100732.34;5059588;28;1182;-22
2023/05/06 05:39:10;;;;;;;;;;;;;;;25.87;30.80;100736.00;5062524;28;1898;-21
2023/05/06 05:41:41;;;;;;;;;;;;;;;25.88;30.71;100734.97;5070396;28;1313;-22
2023/05/06 05:44:07;;;;;;;;;;;;;;;25.83;30.99;100734.66;5061207;28;1143;-22
2023/05/06 05:46:33;;;;;;;;;;;;;;;25.94;31.26;100746.06;5058744;28;1497;-21
2023/05/06 05:49:00;;;;;;;;;;;;;;;25.85;31.40;100748.78;5068880;28;1489;-22
2023/05/06 05:51:26;;;;;;;;;;;;;;;26.00;31.42;100748.06;5075202;28;1122;-22
2023/05/06 05:53:53;;;;;;;;;;;;;;;25.93;31.57;100756.00;5065163;28;2154;-21
2023/05/06 05:56:20;;;;;;;;;;;;;;;25.99;31.05;100746.38;5066099;28;1261;-21
2023/05/06 05:58:47;;;;;;;;;;;;;;;25.96;31.18;100747.56;5076579;28;1902;-21
2023/05/06 06:01:13;;;;;;;;;;;;;;;25.92;31.40;100740.84;5067033;28;1230;-21
2023/05/06 06:03:39;;;;;;;;;;;;;;;25.97;31.37;100748.41;5067897;28;1238;-21
2023/05/06 06:06:04;;;;;;;;;;;;;;;25.87;31.60;100748.63;5063517;28;1184;-21
2023/05/06 06:08:31;;;;;;;;;;;;;;;25.90;31.50;100751.81;5071641;28;1324;-21
2023/05/06 06:10:57;;;;;;;;;;;;;;;25.94;31.61;100740.69;5067582;28;1157;-22
2023/05/06 06:13:28;;;;;;;;;;;;;;;25.88;31.53;100739.50;5075062;28;1375;-22
2023/05/06 06:15:54;;;;;;;;;;;;;;;25.80;31.77;100751.16;5077978;28;1188;-19
2023/05/06 06:18:20;;;;;;;;;;;;;;;25.88;31.92;100747.59;5083016;28;1172;-20
2023/05/06 06:20:46;;;;;;;;;;;;;;;25.92;31.79;100752.44;5068201;28;1905;-20
2023/05/06 06:23:14;;;;;;;;;;;;;;;25.99;31.85;100749.91;5062721;28;1171;-21
2023/05/06 06:25:39;;;;;;;;;;;;;;;25.95;31.60;100745.88;5067998;28;1232;-20
2023/05/06 06:28:05;;;;;;;;;;;;;;;25.93;31.87;100750.59;5079767;28;1165;-21
2023/05/06 06:30:31;;;;;;;;;;;;;;;25.95;32.00;100753.13;5069094;28;1113;-20
2023/05/06 06:32:58;;;;;;;;;;;;;;;25.97;31.96;100751.94;5083187;28;1213;-20
2023/05/06 06:35:25;;;;;;;;;;;;;;;26.04;31.72;100752.91;5086067;28;1042;-20
2023/05/06 06:37:51;;;;;;;;;;;;;;;26.03;31.64;100753.09;5075015;28;1209;-21
2023/05/06 06:40:16;;;;;;;;;;;;;;;26.04;31.62;100762.88;5084287;28;2000;-20
2023/05/06 06:42:42;;;;;;;;;;;;;;;26.11;31.64;100753.03;5065232;28;1217;-21
2023/05/06 06:45:27;;;;;;;;;;;;;;;26.04;31.98;100757.47;5096710;28;1840;-21
2023/05/06 06:47:53;;;;;;;;;;;;;;;26.04;31.76;100760.19;5096035;28;1050;-20
2023/05/06 06:50:19;;;;;;;;;;;;;;;26.01;31.71;100758.66;5082747;28;1173;-21
2023/05/06 06:52:44;;;;;;;;;;;;;;;26.02;32.14;100760.34;5088437;28;835;-20
2023/05/06 06:55:10;;;;;;;;;;;;;;;25.99;32.08;100760.69;5076270;28;1091;-20
2023/05/06 06:57:36;;;;;;;;;;;;;;;26.04;31.59;100757.47;5089137;28;1145;-20
2023/05/06 07:00:02;;;;;;;;;;;;;;;26.08;32.07;100760.63;5076155;28;1906;-20
2023/05/06 07:02:28;;;;;;;;;;;;;;;26.11;31.69;100763.84;5076544;28;1115;-20
2023/05/06 07:04:53;;;;;;;;;;;;;;;26.14;31.80;100763.47;5089417;28;1023;-21
2023/05/06 07:07:19;;;;;;;;;;;;;;;26.12;31.55;100762.84;5082382;28;1119;-20
2023/05/06 07:09:44;;;;;;;;;;;;;;;26.31;31.56;100771.47;5076721;28;1031;-20
2023/05/06 07:12:10;;;;;;;;;;;;;;;26.48;31.59;100761.47;5088775;28;1066;-20
2023/05/06 07:14:36;;;;;;;;;;;;;;;26.51;31.19;100765.66;5076099;28;1069;-20
2023/05/06 07:17:02;;;;;;;;;;;;;;;26.52;31.04;100772.75;5079005;28;1249;-20
2023/05/06 07:19:27;;;;;;;;;;;;;;;26.60;31.07;100771.84;5095696;28;1963;-20
2023/05/06 07:21:53;;;;;;;;;;;;;;;26.61;30.63;100774.38;5094943;28;1457;-20
2023/05/06 07:24:19;;;;;;;;;;;;;;;26.70;31.05;100772.47;5095214;28;1162;-20
2023/05/06 07:26:45;;;;;;;;;;;;;;;26.67;31.11;100772.81;5088940;28;1149;-20
2023/05/06 07:29:11;;;;;;;;;;;;;;;26.85;30.57;100771.66;5081256;28;1218;-20
2023/05/06 07:31:36;;;;;;;;;;;;;;;26.81;30.41;100778.47;5095567;28;1197;-20
2023/05/06 07:34:02;;;;;;;;;;;;;;;26.91;30.09;100770.94;5088108;28;1189;-20
2023/05/06 07:36:27;;;;;;;;;;;;;;;26.88;29.97;100780.25;5074892;28;941;-20
2023/05/06 07:38:53;;;;;;;;;;;;;;;26.73;30.57;100776.66;5075611;28;1980;-20
2023/05/06 07:41:19;;;;;;;;;;;;;;;26.80;30.71;100774.91;5088079;28;1197;-21
2023/05/06 07:43:45;;;;;;;;;;;;;;;26.75;30.55;100774.63;5074926;28;1241;-20
2023/05/06 07:46:10;;;;;;;;;;;;;;;26.88;30.03;100776.69;5076058;28;1280;-20
2023/05/06 07:48:36;;;;;;;;;;;;;;;26.91;30.33;100776.34;5086958;28;1277;-20
2023/05/06 07:51:02;;;;;;;;;;;;;;;26.96;30.32;100781.22;5075397;28;1213;-20
2023/05/06 07:53:27;;;;;;;;;;;;;;;26.87;30.66;100791.22;5074962;28;953;-20
2023/05/06 07:55:55;;;;;;;;;;;;;;;27.01;30.21;100789.59;5074916;28;1266;-20
2023/05/06 07:58:21;;;;;;;;;;;;;;;26.85;30.18;100795.97;5075983;28;1082;-20
2023/05/06 08:00:47;;;;;;;;;;;;;;;26.91;30.17;100792.53;5076019;28;1918;-20
2023/05/06 08:03:12;;;;;;;;;;;;;;;26.84;30.52;100794.28;5085104;28;1107;-20
2023/05/06 08:05:38;;;;;;;;;;;;;;;26.68;30.64;100795.22;5093462;28;1058;-20
2023/05/06 08:08:04;;;;;;;;;;;;;;;26.89;30.45;100806.22;5090319;28;1281;-20
2023/05/06 08:10:29;;;;;;;;;;;;;;;26.94;29.91;100800.28;5095144;28;1205;-20
2023/05/06 08:12:55;;;;;;;;;;;;;;;26.95;29.84;100804.66;5072215;28;1307;-19
2023/05/06 08:15:21;;;;;;;;;;;;;;;26.82;30.43;100805.28;5085168;28;1197;-21
2023/05/06 08:17:46;;;;;;;;;;;;;;;26.89;30.32;100795.41;5085545;28;996;-20
2023/05/06 08:20:12;;;;;;;;;;;;;;;26.88;30.42;100804.53;5085464;28;1971;-20
2023/05/06 08:22:38;;;;;;;;;;;;;;;27.07;30.00;100799.72;5099345;28;1094;-20
2023/05/06 08:25:04;;;;;;;;;;;;;;;27.09;30.22;100808.44;5092681;28;987;-20
2023/05/06 08:27:29;;;;;;;;;;;;;;;26.95;30.32;100809.22;5087868;28;1119;-20
2023/05/06 08:29:55;;;;;;;;;;;;;;;26.98;30.25;100807.00;5096708;28;1007;-20
2023/05/06 08:32:20;;;;;;;;;;;;;;;26.92;29.99;100812.28;5087548;28;1054;-20
2023/05/06 08:34:46;;;;;;;;;;;;;;;26.96;30.00;100814.44;5085161;28;1057;-20
2023/05/06 08:37:12;;;;;;;;;;;;;;;26.94;29.84;100816.50;5090365;28;1034;-20
2023/05/06 08:39:37;;;;;;;;;;;;;;;26.86;30.46;100813.84;5093551;28;1972;-20
2023/05/06 08:42:03;;;;;;;;;;;;;;;27.06;29.74;100819.63;5083523;28;859;-20
2023/05/06 08:44:29;;;;;;;;;;;;;;;26.94;30.22;100808.41;5061963;28;1011;-20
2023/05/06 08:46:55;;;;;;;;;;;;;;;26.94;30.20;100815.66;5090332;28;1042;-20
2023/05/06 08:49:20;;;;;;;;;;;;;;;27.04;30.06;100821.69;5078703;28;1135;-20
2023/05/06 08:51:46;;;;;;;;;;;;;;;26.84;30.36;100815.88;5078495;28;1010;-20
2023/05/06 08:54:11;;;;;;;;;;;;;;;26.87;30.04;100807.44;5079700;28;904;-21
2023/05/06 08:56:37;;;;;;;;;;;;;;;27.04;30.06;100818.97;5098397;28;994;-20
2023/05/06 08:59:03;;;;;;;;;;;;;;;26.83;30.45;100812.34;5084500;28;1955;-19
2023/05/06 09:01:28;;;;;;;;;;;;;;;26.90;30.41;100823.25;5090806;28;1186;-20
2023/05/06 09:03:54;;;;;;;;;;;;;;;26.99;30.42;100821.34;5091319;28;1199;-20
2023/05/06 09:06:20;;;;;;;;;;;;;;;27.13;30.03;100823.28;5090927;28;1248;-20
2023/05/06 09:08:46;;;;;;;;;;;;;;;27.02;30.00;100821.00;5083319;28;1035;-20
2023/05/06 09:11:18;;;;;;;;;;;;;;;26.79;30.31;100827.22;5078242;28;1190;-20
2023/05/06 09:13:43;;;;;;;;;;;;;;;26.55;31.29;100815.56;5080400;28;1166;-20
2023/05/06 09:16:09;;;;;;;;;;;;;;;26.67;30.93;100809.75;5088469;28;1023;-20
2023/05/06 09:18:35;;;;;;;;;;;;;;;26.58;31.23;100812.50;5079499;28;1027;-20
2023/05/06 09:21:02;;;;;;;;;;;;;;;26.71;30.94;100814.59;5088134;28;1906;-20
2023/05/06 09:23:28;;;;;;;;;;;;;;;26.58;30.95;100809.81;5076018;28;1154;-20
2023/05/06 09:25:54;;;;;;;;;;;;;;;26.65;30.95;100816.19;5079619;28;1130;-20
2023/05/06 09:28:19;;;;;;;;;;;;;;;26.68;30.78;100804.16;5060094;28;1332;-20
2023/05/06 09:30:46;;;;;;;;;;;;;;;26.58;30.90;100804.41;5082446;28;858;-20
2023/05/06 09:33:12;;;;;;;;;;;;;;;26.97;30.32;100810.72;5062084;28;1133;-20
2023/05/06 09:35:41;;;;;;;;;;;;;;;26.94;30.59;100808.41;5066004;28;1063;-20
2023/05/06 09:38:07;;;;;;;;;;;;;;;27.10;30.04;100814.69;5082972;28;1146;-19
2023/05/06 09:40:33;;;;;;;;;;;;;;;26.99;30.34;100808.66;5092488;28;1902;-20
2023/05/06 09:42:59;;;;;;;;;;;;;;;26.88;30.77;100801.84;5097279;28;855;-20
2023/05/06 09:45:25;;;;;;;;;;;;;;;26.86;30.74;100803.88;5084167;28;1113;-20
2023/05/06 09:47:52;;;;;;;;;;;;;;;26.89;30.97;100800.81;5062693;28;1443;-20
2023/05/06 09:50:19;;;;;;;;;;;;;;;27.00;30.40;100804.97;5079778;28;1308;-20
2023/05/06 09:52:45;;;;;;;;;;;;;;;26.94;30.84;100799.44;5079305;28;1047;-20
2023/05/06 09:55:10;;;;;;;;;;;;;;;26.94;30.49;100803.00;5083377;28;991;-20
2023/05/06 09:57:36;;;;;;;;;;;;;;;27.04;30.54;100796.53;5097484;28;1026;-20
2023/05/06 10:00:02;;;;;;;;;;;;;;;26.98;30.55;100796.19;5083028;28;1981;-20
2023/05/06 10:02:40;;;;;;;;;;;;;;;27.08;30.23;100795.97;5085529;28;1069;-21
2023/05/06 10:05:07;;;;;;;;;;;;;;;26.65;31.11;100786.50;5093159;28;1097;-21
2023/05/06 10:07:32;;;;;;;;;;;;;;;26.47;31.17;100789.47;5081132;28;1157;-22
2023/05/06 10:09:58;;;;;;;;;;;;;;;26.54;31.30;100778.81;5090009;28;1083;-21
2023/05/06 10:12:24;;;;;;;;;;;;;;;26.55;31.22;100776.94;5075448;28;1166;-21
2023/05/06 10:14:49;;;;;;;;;;;;;;;26.59;30.96;100783.66;5076680;28;1030;-22
2023/05/06 10:17:15;;;;;;;;;;;;;;;26.56;30.97;100781.34;5060703;28;1312;-21
2023/05/06 10:19:44;;;;;;;;;;;;;;;26.31;31.81;100786.84;5060212;28;1914;-21
2023/05/06 10:22:21;;;;;;;;;;;;;;;26.38;31.48;100780.59;5076258;28;1091;-22
2023/05/06 10:25:15;;;;;;;;;;;;;;;26.35;31.48;100783.63;5075249;28;1066;-22
2023/05/06 10:27:41;;;;;;;;;;;;;;;26.36;31.90;100787.19;5088180;28;1359;-22
2023/05/06 10:30:07;;;;;;;;;;;;;;;26.43;31.28;100784.59;5070157;28;1001;-22
2023/05/06 10:32:33;;;;;;;;;;;;;;;26.41;31.05;100777.53;5077908;28;1086;-21
2023/05/06 10:35:02;;;;;;;;;;;;;;;26.50;31.13;100775.63;5089755;28;1086;-21
2023/05/06 10:37:27;;;;;;;;;;;;;;;26.47;30.94;100792.19;5076664;28;1138;-22
2023/05/06 10:39:53;;;;;;;;;;;;;;;26.37;31.28;100770.81;5070716;28;1914;-22
2023/05/06 10:42:18;;;;;;;;;;;;;;;26.44;31.56;100775.50;5076983;28;1140;-22
2023/05/06 10:45:00;;;;;;;;;;;;;;;26.47;31.49;100777.84;5076609;28;1050;-22
2023/05/06 10:47:26;;;;;;;;;;;;;;;26.58;30.97;100755.84;5089914;28;1059;-21
2023/05/06 10:50:10;;;;;;;;;;;;;;;26.49;31.40;100775.81;5086402;28;1136;-21
2023/05/06 10:52:45;;;;;;;;;;;;;;;26.49;31.36;100767.72;5076913;28;1181;-21
2023/05/06 10:55:27;;;;;;;;;;;;;;;26.41;31.23;100779.38;5074698;28;864;-22
2023/05/06 10:57:54;;;;;;;;;;;;;;;26.57;30.96;100780.31;5076731;28;1159;-22
2023/05/06 11:00:20;;;;;;;;;;;;;;;26.63;31.13;100768.78;5078734;28;1963;-21
2023/05/06 11:02:50;;;;;;;;;;;;;;;26.76;30.83;100784.38;5082273;28;1131;-21
2023/05/06 11:05:16;;;;;;;;;;;;;;;26.54;31.22;100786.91;5096105;28;1055;-22
2023/05/06 11:07:41;;;;;;;;;;;;;;;26.71;31.18;100786.81;5085805;28;845;-21
2023/05/06 11:10:07;;;;;;;;;;;;;;;26.56;31.40;100781.34;5064261;28;1046;-21
2023/05/06 11:12:49;;;;;;;;;;;;;;;26.56;31.49;100787.53;5070984;28;1426;-21
2023/05/06 11:15:18;;;;;;;;;;;;;;;26.60;31.70;100785.34;5075759;28;1174;-21
2023/05/06 11:17:44;;;;;;;;;;;;;;;26.56;31.46;100781.34;5060693;28;1277;-21
2023/05/06 11:20:19;;;;;;;;;;;;;;;26.62;31.83;100796.81;5093604;28;1967;-21
2023/05/06 11:22:45;;;;;;;;;;;;;;;26.68;31.50;100797.94;5076242;28;1174;-21
2023/05/06 11:25:10;;;;;;;;;;;;;;;26.64;31.66;100790.19;5083256;28;1224;-21
2023/05/06 11:27:36;;;;;;;;;;;;;;;26.70;31.83;100788.66;5096055;28;1177;-21
2023/05/06 11:30:02;;;;;;;;;;;;;;;26.73;31.39;100784.75;5096157;28;1054;-21
2023/05/06 11:32:28;;;;;;;;;;;;;;;26.82;31.59;100793.63;5082266;28;1165;-20
2023/05/06 11:34:54;;;;;;;;;;;;;;;26.62;31.87;100791.41;5089564;28;1035;-21
2023/05/06 11:37:26;;;;;;;;;;;;;;;26.72;31.52;100780.38;5077311;28;1534;-21
2023/05/06 11:39:52;;;;;;;;;;;;;;;26.61;31.84;100789.75;5095498;28;1972;-21
2023/05/06 11:42:24;;;;;;;;;;;;;;;26.63;31.78;100793.91;5100036;28;1054;-21
2023/05/06 11:44:51;;;;;;;;;;;;;;;26.72;31.47;100793.88;5085996;28;1153;-20
2023/05/06 11:47:19;;;;;;;;;;;;;;;26.65;31.92;100804.53;5099836;28;1138;-21
2023/05/06 11:49:45;;;;;;;;;;;;;;;26.52;32.03;100792.50;5099891;28;1118;-20
2023/05/06 11:52:11;;;;;;;;;;;;;;;26.56;32.24;100797.53;5099996;28;1149;-21
2023/05/06 11:54:40;;;;;;;;;;;;;;;26.62;31.92;100794.09;5085845;28;1137;-21
2023/05/06 11:57:06;;;;;;;;;;;;;;;26.73;31.65;100795.53;5070669;28;2403;-21
2023/05/06 11:59:31;;;;;;;;;;;;;;;26.58;32.10;100798.16;5081664;28;1914;-21
2023/05/06 12:01:58;;;;;;;;;;;;;;;26.60;31.80;100796.13;5088703;28;1080;-21
2023/05/06 12:04:23;;;;;;;;;;;;;;;26.67;31.89;100797.09;5097006;28;1085;-21
2023/05/06 12:06:49;;;;;;;;;;;;;;;26.64;31.89;100792.88;5098026;28;1116;-21
2023/05/06 12:09:15;;;;;;;;;;;;;;;26.60;32.28;100794.28;5085581;28;1054;-21
2023/05/06 12:11:40;;;;;;;;;;;;;;;26.80;32.03;100791.09;5089190;28;1124;-21
2023/05/06 12:14:07;;;;;;;;;;;;;;;26.58;32.42;100795.47;5092890;28;1189;-21
2023/05/06 12:16:34;;;;;;;;;;;;;;;26.57;32.22;100796.50;5079073;28;1058;-21
2023/05/06 12:18:59;;;;;;;;;;;;;;;26.58;32.27;100800.84;5083860;28;1905;-21
2023/05/06 12:21:25;;;;;;;;;;;;;;;26.69;32.03;100799.63;5078549;28;1182;-21
2023/05/06 12:23:52;;;;;;;;;;;;;;;26.69;32.38;100791.53;5079126;28;1070;-21
2023/05/06 12:26:18;;;;;;;;;;;;;;;26.71;32.35;100784.91;5079274;28;1162;-23
2023/05/06 12:28:44;;;;;;;;;;;;;;;26.74;32.07;100795.34;5079057;28;1142;-20
2023/05/06 12:31:23;;;;;;;;;;;;;;;26.72;32.21;100792.00;5092045;28;1141;-21
2023/05/06 12:33:49;;;;;;;;;;;;;;;26.62;32.20;100796.81;5077575;28;1150;-21
2023/05/06 12:36:15;;;;;;;;;;;;;;;26.63;32.17;100796.63;5083131;28;1107;-21
2023/05/06 12:38:53;;;;;;;;;;;;;;;26.58;32.74;100790.91;5099075;28;1070;-21
2023/05/06 12:41:20;;;;;;;;;;;;;;;26.70;32.62;100793.19;5085582;28;1149;-21
2023/05/06 12:43:45;;;;;;;;;;;;;;;26.68;32.41;100790.69;5098399;28;907;-21
2023/05/06 12:46:11;;;;;;;;;;;;;;;26.66;32.64;100795.41;5084839;28;1061;-21